sensor_id;sensor_type;location;lat;lon;timestamp;pressure;altitude;pressure_sealevel;temperature;humidity
71361;BME280;59166;48.908;1.870;2022-08-19T00:04:26;100358.41;;;17.87;78.44
71361;BME280;59166;48.908;1.870;2022-08-19T00:09:28;100364.66;;;17.87;78.58
71361;BME280;59166;48.908;1.870;2022-08-19T00:14:29;100358.81;;;17.80;79.03
71361;BME280;59166;48.908;1.870;2022-08-19T00:19:31;100362.69;;;17.66;79.78
71361;BME280;59166;48.908;1.870;2022-08-19T00:24:32;100360.19;;;17.56;79.93
71361;BME280;59166;48.908;1.870;2022-08-19T00:29:33;100357.25;;;17.52;80.39
71361;BME280;59166;48.908;1.870;2022-08-19T00:34:35;100364.91;;;17.50;80.12
71361;BME280;59166;48.908;1.870;2022-08-19T00:39:36;100368.78;;;17.49;79.70
71361;BME280;59166;48.908;1.870;2022-08-19T00:44:36;100373.03;;;17.41;80.23
71361;BME280;59166;48.908;1.870;2022-08-19T00:49:43;100375.63;;;17.46;80.50
71361;BME280;59166;48.908;1.870;2022-08-19T00:54:46;100378.28;;;17.38;80.99
71361;BME280;59166;48.908;1.870;2022-08-19T00:59:51;100377.06;;;17.30;81.19
71361;BME280;59166;48.908;1.870;2022-08-19T01:04:54;100384.34;;;17.21;81.73
71361;BME280;59166;48.908;1.870;2022-08-19T01:09:56;100378.56;;;17.23;81.69
71361;BME280;59166;48.908;1.870;2022-08-19T01:14:57;100381.13;;;17.19;81.75
71361;BME280;59166;48.908;1.870;2022-08-19T01:20:00;100367.81;;;17.13;81.48
71361;BME280;59166;48.908;1.870;2022-08-19T01:25:03;100376.94;;;17.08;82.56
71361;BME280;59166;48.908;1.870;2022-08-19T01:30:05;100384.19;;;16.99;82.66
71361;BME280;59166;48.908;1.870;2022-08-19T01:35:06;100386.41;;;16.97;83.17
71361;BME280;59166;48.908;1.870;2022-08-19T01:40:10;100390.84;;;16.93;83.28
71361;BME280;59166;48.908;1.870;2022-08-19T01:45:11;100390.03;;;16.92;82.86
71361;BME280;59166;48.908;1.870;2022-08-19T01:50:12;100392.53;;;16.89;83.03
71361;BME280;59166;48.908;1.870;2022-08-19T01:55:18;100387.78;;;16.81;83.89
71361;BME280;59166;48.908;1.870;2022-08-19T02:00:21;100385.22;;;16.71;84.46
71361;BME280;59166;48.908;1.870;2022-08-19T02:05:23;100390.16;;;16.69;84.53
71361;BME280;59166;48.908;1.870;2022-08-19T02:10:25;100400.34;;;16.63;85.05
71361;BME280;59166;48.908;1.870;2022-08-19T02:15:26;100398.00;;;16.57;85.46
71361;BME280;59166;48.908;1.870;2022-08-19T02:20:26;100396.69;;;16.54;85.74
71361;BME280;59166;48.908;1.870;2022-08-19T02:25:28;100402.44;;;16.53;85.78
71361;BME280;59166;48.908;1.870;2022-08-19T02:30:29;100410.34;;;16.54;85.86
71361;BME280;59166;48.908;1.870;2022-08-19T02:35:30;100411.66;;;16.57;85.74
71361;BME280;59166;48.908;1.870;2022-08-19T02:40:33;100407.81;;;16.58;85.96
71361;BME280;59166;48.908;1.870;2022-08-19T02:45:35;100405.75;;;16.50;86.34
71361;BME280;59166;48.908;1.870;2022-08-19T02:50:37;100412.25;;;16.54;86.43
71361;BME280;59166;48.908;1.870;2022-08-19T02:55:44;100404.78;;;16.59;86.22
71361;BME280;59166;48.908;1.870;2022-08-19T03:00:47;100396.16;;;16.71;85.83
71361;BME280;59166;48.908;1.870;2022-08-19T03:05:47;100400.63;;;16.80;85.69
71361;BME280;59166;48.908;1.870;2022-08-19T03:10:49;100398.16;;;16.79;85.75
71361;BME280;59166;48.908;1.870;2022-08-19T03:15:50;100397.06;;;16.80;85.75
71361;BME280;59166;48.908;1.870;2022-08-19T03:20:52;100393.25;;;16.81;86.13
71361;BME280;59166;48.908;1.870;2022-08-19T03:25:54;100394.34;;;16.80;85.69
71361;BME280;59166;48.908;1.870;2022-08-19T03:30:56;100399.13;;;16.88;86.11
71361;BME280;59166;48.908;1.870;2022-08-19T03:36:05;100396.91;;;16.90;85.95
71361;BME280;59166;48.908;1.870;2022-08-19T03:41:10;100394.78;;;16.87;86.17
71361;BME280;59166;48.908;1.870;2022-08-19T03:46:13;100391.16;;;16.91;85.73
71361;BME280;59166;48.908;1.870;2022-08-19T03:51:16;100394.31;;;16.99;85.70
71361;BME280;59166;48.908;1.870;2022-08-19T03:56:19;100389.34;;;17.01;85.69
71361;BME280;59166;48.908;1.870;2022-08-19T04:01:23;100396.91;;;17.04;85.67
71361;BME280;59166;48.908;1.870;2022-08-19T04:06:25;100387.31;;;17.06;85.59
71361;BME280;59166;48.908;1.870;2022-08-19T04:11:30;100392.00;;;17.06;85.79
71361;BME280;59166;48.908;1.870;2022-08-19T04:16:31;100379.88;;;17.12;85.54
71361;BME280;59166;48.908;1.870;2022-08-19T04:21:32;100379.78;;;17.17;85.61
71361;BME280;59166;48.908;1.870;2022-08-19T04:26:35;100377.47;;;17.24;85.67
71361;BME280;59166;48.908;1.870;2022-08-19T04:31:36;100383.94;;;17.28;85.47
71361;BME280;59166;48.908;1.870;2022-08-19T04:36:38;100374.66;;;17.29;85.42
71361;BME280;59166;48.908;1.870;2022-08-19T04:41:41;100391.03;;;17.29;85.39
71361;BME280;59166;48.908;1.870;2022-08-19T04:46:41;100383.84;;;17.33;85.40
71361;BME280;59166;48.908;1.870;2022-08-19T04:51:44;100410.34;;;17.32;84.88
71361;BME280;59166;48.908;1.870;2022-08-19T04:56:47;100411.34;;;17.36;84.64
71361;BME280;59166;48.908;1.870;2022-08-19T05:01:48;100408.63;;;17.36;84.69
71361;BME280;59166;48.908;1.870;2022-08-19T05:06:49;100413.50;;;17.39;85.06
71361;BME280;59166;48.908;1.870;2022-08-19T05:11:51;100418.63;;;17.41;85.77
71361;BME280;59166;48.908;1.870;2022-08-19T05:16:52;100412.16;;;17.51;86.05
71361;BME280;59166;48.908;1.870;2022-08-19T05:21:53;100422.28;;;17.50;86.14
71361;BME280;59166;48.908;1.870;2022-08-19T05:26:56;100428.06;;;17.62;86.23
71361;BME280;59166;48.908;1.870;2022-08-19T05:31:57;100428.47;;;17.69;86.22
71361;BME280;59166;48.908;1.870;2022-08-19T05:36:59;100426.34;;;17.80;85.84
71361;BME280;59166;48.908;1.870;2022-08-19T05:42:04;100427.84;;;17.86;85.81
71361;BME280;59166;48.908;1.870;2022-08-19T05:47:06;100429.47;;;17.87;85.92
71361;BME280;59166;48.908;1.870;2022-08-19T05:52:09;100425.00;;;17.91;85.79
71361;BME280;59166;48.908;1.870;2022-08-19T05:57:12;100430.25;;;18.01;85.81
71361;BME280;59166;48.908;1.870;2022-08-19T06:02:12;100430.75;;;18.03;85.68
71361;BME280;59166;48.908;1.870;2022-08-19T06:07:13;100437.72;;;18.09;86.00
71361;BME280;59166;48.908;1.870;2022-08-19T06:12:15;100429.41;;;18.14;85.91
71361;BME280;59166;48.908;1.870;2022-08-19T06:17:16;100434.47;;;18.21;86.32
71361;BME280;59166;48.908;1.870;2022-08-19T06:22:16;100426.19;;;18.26;86.23
71361;BME280;59166;48.908;1.870;2022-08-19T06:27:19;100429.59;;;18.31;86.32
71361;BME280;59166;48.908;1.870;2022-08-19T06:32:19;100423.34;;;18.31;86.23
71361;BME280;59166;48.908;1.870;2022-08-19T06:37:20;100431.00;;;18.42;86.17
71361;BME280;59166;48.908;1.870;2022-08-19T06:42:22;100441.31;;;18.45;85.83
71361;BME280;59166;48.908;1.870;2022-08-19T06:47:23;100441.06;;;18.56;85.03
71361;BME280;59166;48.908;1.870;2022-08-19T06:52:23;100444.88;;;18.68;84.74
71361;BME280;59166;48.908;1.870;2022-08-19T06:57:26;100446.44;;;18.83;83.94
71361;BME280;59166;48.908;1.870;2022-08-19T07:02:26;100450.78;;;18.84;83.87
71361;BME280;59166;48.908;1.870;2022-08-19T07:07:27;100455.38;;;18.97;83.33
71361;BME280;59166;48.908;1.870;2022-08-19T07:12:30;100454.09;;;19.17;83.50
71361;BME280;59166;48.908;1.870;2022-08-19T07:17:31;100459.00;;;19.28;82.13
71361;BME280;59166;48.908;1.870;2022-08-19T07:22:32;100459.97;;;19.32;81.74
71361;BME280;59166;48.908;1.870;2022-08-19T07:27:34;100464.22;;;19.38;81.73
71361;BME280;59166;48.908;1.870;2022-08-19T07:32:35;100455.25;;;19.55;80.89
71361;BME280;59166;48.908;1.870;2022-08-19T07:37:36;100460.06;;;19.89;80.30
71361;BME280;59166;48.908;1.870;2022-08-19T07:42:38;100465.66;;;19.84;79.45
71361;BME280;59166;48.908;1.870;2022-08-19T07:47:39;100463.16;;;19.96;79.43
71361;BME280;59166;48.908;1.870;2022-08-19T07:52:40;100470.13;;;20.11;78.26
71361;BME280;59166;48.908;1.870;2022-08-19T07:57:42;100468.19;;;20.03;78.14
71361;BME280;59166;48.908;1.870;2022-08-19T08:02:42;100469.97;;;20.07;78.16
71361;BME280;59166;48.908;1.870;2022-08-19T08:07:43;100473.72;;;20.28;77.33
71361;BME280;59166;48.908;1.870;2022-08-19T08:12:45;100463.25;;;20.39;76.61
71361;BME280;59166;48.908;1.870;2022-08-19T08:17:46;100474.53;;;20.55;76.51
71361;BME280;59166;48.908;1.870;2022-08-19T08:22:47;100476.81;;;20.70;76.14
71361;BME280;59166;48.908;1.870;2022-08-19T08:27:49;100475.03;;;20.99;74.14
71361;BME280;59166;48.908;1.870;2022-08-19T08:32:50;100473.59;;;21.02;73.94
71361;BME280;59166;48.908;1.870;2022-08-19T08:37:53;100482.09;;;21.35;74.03
71361;BME280;59166;48.908;1.870;2022-08-19T08:42:59;100478.97;;;21.54;71.81
71361;BME280;59166;48.908;1.870;2022-08-19T08:48:16;100475.53;;;21.57;72.37
71361;BME280;59166;48.908;1.870;2022-08-19T08:53:19;100477.84;;;21.46;72.76
71361;BME280;59166;48.908;1.870;2022-08-19T08:58:28;100481.53;;;21.59;72.18
71361;BME280;59166;48.908;1.870;2022-08-19T09:03:29;100474.38;;;21.75;71.49
71361;BME280;59166;48.908;1.870;2022-08-19T09:08:39;100481.44;;;21.84;70.61
71361;BME280;59166;48.908;1.870;2022-08-19T09:13:54;100470.97;;;22.07;68.53
71361;BME280;59166;48.908;1.870;2022-08-19T09:19:03;100468.84;;;22.63;68.09
71361;BME280;59166;48.908;1.870;2022-08-19T09:24:05;100475.28;;;22.67;66.22
71361;BME280;59166;48.908;1.870;2022-08-19T09:29:07;100472.63;;;22.91;66.22
71361;BME280;59166;48.908;1.870;2022-08-19T09:34:07;100472.59;;;23.12;65.64
71361;BME280;59166;48.908;1.870;2022-08-19T09:39:08;100474.66;;;22.82;65.19
71361;BME280;59166;48.908;1.870;2022-08-19T09:44:10;100487.22;;;23.24;63.87
71361;BME280;59166;48.908;1.870;2022-08-19T09:49:11;100479.72;;;23.25;64.95
71361;BME280;59166;48.908;1.870;2022-08-19T09:54:11;100477.06;;;23.04;64.17
71361;BME280;59166;48.908;1.870;2022-08-19T09:59:13;100474.53;;;23.11;64.85
71361;BME280;59166;48.908;1.870;2022-08-19T10:04:14;100474.69;;;24.20;60.86
71361;BME280;59166;48.908;1.870;2022-08-19T10:09:16;100472.66;;;24.05;60.65
71361;BME280;59166;48.908;1.870;2022-08-19T10:14:18;100478.28;;;24.09;61.12
71361;BME280;59166;48.908;1.870;2022-08-19T10:19:19;100470.09;;;24.24;59.83
71361;BME280;59166;48.908;1.870;2022-08-19T10:24:20;100470.56;;;24.14;59.26
71361;BME280;59166;48.908;1.870;2022-08-19T10:29:22;100466.19;;;23.89;59.74
71361;BME280;59166;48.908;1.870;2022-08-19T10:34:22;100464.09;;;23.49;61.51
71361;BME280;59166;48.908;1.870;2022-08-19T10:39:23;100466.97;;;23.41;61.04
71361;BME280;59166;48.908;1.870;2022-08-19T10:44:26;100460.50;;;23.37;62.10
71361;BME280;59166;48.908;1.870;2022-08-19T10:49:27;100459.25;;;23.34;62.02
71361;BME280;59166;48.908;1.870;2022-08-19T10:54:27;100461.25;;;23.25;62.74
71361;BME280;59166;48.908;1.870;2022-08-19T10:59:29;100464.91;;;23.17;63.50
71361;BME280;59166;48.908;1.870;2022-08-19T11:04:30;100467.84;;;23.00;63.91
71361;BME280;59166;48.908;1.870;2022-08-19T11:09:31;100471.94;;;22.94;64.57
71361;BME280;59166;48.908;1.870;2022-08-19T11:14:37;100466.06;;;22.83;64.14
71361;BME280;59166;48.908;1.870;2022-08-19T11:19:38;100467.63;;;22.72;65.15
71361;BME280;59166;48.908;1.870;2022-08-19T11:24:38;100473.13;;;22.72;64.85
71361;BME280;59166;48.908;1.870;2022-08-19T11:29:40;100470.00;;;22.74;64.89
71361;BME280;59166;48.908;1.870;2022-08-19T11:34:41;100463.50;;;22.78;65.13
71361;BME280;59166;48.908;1.870;2022-08-19T11:39:42;100471.44;;;22.80;63.87
71361;BME280;59166;48.908;1.870;2022-08-19T11:44:44;100461.00;;;22.85;64.29
71361;BME280;59166;48.908;1.870;2022-08-19T11:49:45;100469.31;;;22.97;64.66
71361;BME280;59166;48.908;1.870;2022-08-19T11:54:46;100473.00;;;23.01;65.17
71361;BME280;59166;48.908;1.870;2022-08-19T11:59:49;100474.81;;;22.97;65.13
71361;BME280;59166;48.908;1.870;2022-08-19T12:04:50;100477.06;;;23.04;64.54
71361;BME280;59166;48.908;1.870;2022-08-19T12:09:51;100476.44;;;23.31;64.78
71361;BME280;59166;48.908;1.870;2022-08-19T12:14:53;100475.56;;;23.51;63.51
71361;BME280;59166;48.908;1.870;2022-08-19T12:19:54;100461.69;;;23.72;62.04
71361;BME280;59166;48.908;1.870;2022-08-19T12:24:55;100469.66;;;24.22;60.60
71361;BME280;59166;48.908;1.870;2022-08-19T12:29:57;100455.25;;;24.69;58.45
71361;BME280;59166;48.908;1.870;2022-08-19T12:34:57;100455.19;;;25.36;58.04
71361;BME280;59166;48.908;1.870;2022-08-19T12:39:58;100450.91;;;26.17;54.41
71361;BME280;59166;48.908;1.870;2022-08-19T12:45:00;100443.53;;;26.09;53.10
71361;BME280;59166;48.908;1.870;2022-08-19T12:50:01;100441.06;;;26.04;54.78
71361;BME280;59166;48.908;1.870;2022-08-19T12:55:03;100442.22;;;26.19;54.79
71361;BME280;59166;48.908;1.870;2022-08-19T13:00:08;100444.84;;;25.65;55.48
71361;BME280;59166;48.908;1.870;2022-08-19T13:05:12;100442.00;;;25.02;57.77
71361;BME280;59166;48.908;1.870;2022-08-19T13:10:15;100440.88;;;24.63;58.39
71361;BME280;59166;48.908;1.870;2022-08-19T13:15:19;100441.69;;;24.36;59.76
71361;BME280;59166;48.908;1.870;2022-08-19T13:20:21;100433.41;;;24.24;61.10
71361;BME280;59166;48.908;1.870;2022-08-19T13:25:22;100433.28;;;24.20;60.58
71361;BME280;59166;48.908;1.870;2022-08-19T13:30:24;100430.28;;;24.65;59.67
71361;BME280;59166;48.908;1.870;2022-08-19T13:35:25;100427.69;;;25.28;57.72
71361;BME280;59166;48.908;1.870;2022-08-19T13:40:26;100426.22;;;25.46;57.45
71361;BME280;59166;48.908;1.870;2022-08-19T13:45:29;100422.53;;;25.58;56.77
71361;BME280;59166;48.908;1.870;2022-08-19T13:50:31;100421.94;;;25.48;56.19
71361;BME280;59166;48.908;1.870;2022-08-19T13:55:31;100429.03;;;25.34;56.43
71361;BME280;59166;48.908;1.870;2022-08-19T14:00:35;100431.41;;;25.04;58.25
71361;BME280;59166;48.908;1.870;2022-08-19T14:05:36;100422.44;;;24.67;59.46
71361;BME280;59166;48.908;1.870;2022-08-19T14:10:37;100429.34;;;24.45;59.43
71361;BME280;59166;48.908;1.870;2022-08-19T14:15:39;100427.44;;;24.49;60.03
71361;BME280;59166;48.908;1.870;2022-08-19T14:20:41;100427.38;;;24.46;59.51
71361;BME280;59166;48.908;1.870;2022-08-19T14:25:42;100416.34;;;24.34;59.95
71361;BME280;59166;48.908;1.870;2022-08-19T14:30:44;100423.38;;;24.19;60.74
71361;BME280;59166;48.908;1.870;2022-08-19T14:35:45;100422.16;;;24.05;61.39
71361;BME280;59166;48.908;1.870;2022-08-19T14:40:45;100435.25;;;23.95;61.87
71361;BME280;59166;48.908;1.870;2022-08-19T14:45:47;100422.72;;;23.86;63.76
71361;BME280;59166;48.908;1.870;2022-08-19T14:50:48;100421.34;;;23.92;63.33
71361;BME280;59166;48.908;1.870;2022-08-19T14:55:48;100415.38;;;23.90;63.93
71361;BME280;59166;48.908;1.870;2022-08-19T15:00:50;100411.94;;;23.81;64.06
71361;BME280;59166;48.908;1.870;2022-08-19T15:05:51;100408.03;;;23.58;65.64
71361;BME280;59166;48.908;1.870;2022-08-19T15:10:52;100407.22;;;23.57;68.17
71361;BME280;59166;48.908;1.870;2022-08-19T15:15:55;100412.75;;;23.57;69.56
71361;BME280;59166;48.908;1.870;2022-08-19T15:20:56;100417.19;;;23.62;70.46
71361;BME280;59166;48.908;1.870;2022-08-19T15:25:57;100415.59;;;23.73;70.52
71361;BME280;59166;48.908;1.870;2022-08-19T15:30:59;100421.59;;;23.75;69.91
71361;BME280;59166;48.908;1.870;2022-08-19T15:35:59;100423.88;;;23.73;70.51
71361;BME280;59166;48.908;1.870;2022-08-19T15:41:01;100425.72;;;23.81;69.57
71361;BME280;59166;48.908;1.870;2022-08-19T15:46:04;100419.72;;;23.79;68.72
71361;BME280;59166;48.908;1.870;2022-08-19T15:51:04;100418.78;;;23.99;65.72
71361;BME280;59166;48.908;1.870;2022-08-19T15:56:05;100421.53;;;24.35;64.28
71361;BME280;59166;48.908;1.870;2022-08-19T16:01:07;100420.88;;;24.54;64.72
71361;BME280;59166;48.908;1.870;2022-08-19T16:06:09;100425.50;;;24.90;61.44
71361;BME280;59166;48.908;1.870;2022-08-19T16:11:10;100429.81;;;25.34;60.01
71361;BME280;59166;48.908;1.870;2022-08-19T16:16:12;100424.31;;;25.81;56.07
71361;BME280;59166;48.908;1.870;2022-08-19T16:21:13;100429.50;;;25.51;54.87
71361;BME280;59166;48.908;1.870;2022-08-19T16:26:15;100431.16;;;25.09;55.37
71361;BME280;59166;48.908;1.870;2022-08-19T16:31:17;100434.38;;;24.83;56.68
71361;BME280;59166;48.908;1.870;2022-08-19T16:36:18;100432.03;;;24.58;58.01
71361;BME280;59166;48.908;1.870;2022-08-19T16:41:19;100430.72;;;24.39;59.12
71361;BME280;59166;48.908;1.870;2022-08-19T16:46:22;100433.94;;;24.29;59.24
71361;BME280;59166;48.908;1.870;2022-08-19T16:51:23;100432.63;;;24.11;59.42
71361;BME280;59166;48.908;1.870;2022-08-19T16:56:23;100444.94;;;24.02;59.91
71361;BME280;59166;48.908;1.870;2022-08-19T17:01:26;100451.59;;;23.64;66.58
71361;BME280;59166;48.908;1.870;2022-08-19T17:06:28;100461.25;;;22.80;70.68
71361;BME280;59166;48.908;1.870;2022-08-19T17:11:30;100466.22;;;22.37;74.11
71361;BME280;59166;48.908;1.870;2022-08-19T17:16:34;100480.34;;;22.06;77.71
71361;BME280;59166;48.908;1.870;2022-08-19T17:21:36;100477.13;;;21.75;80.62
71361;BME280;59166;48.908;1.870;2022-08-19T17:26:37;100482.97;;;21.56;82.34
71361;BME280;59166;48.908;1.870;2022-08-19T17:31:39;100476.09;;;21.33;84.23
71361;BME280;59166;48.908;1.870;2022-08-19T17:36:39;100468.56;;;21.21;85.00
71361;BME280;59166;48.908;1.870;2022-08-19T17:41:40;100471.97;;;21.10;85.90
71361;BME280;59166;48.908;1.870;2022-08-19T17:46:42;100471.66;;;21.03;86.75
71361;BME280;59166;48.908;1.870;2022-08-19T17:51:44;100475.22;;;21.03;86.93
71361;BME280;59166;48.908;1.870;2022-08-19T17:56:45;100484.56;;;21.02;86.96
71361;BME280;59166;48.908;1.870;2022-08-19T18:01:48;100477.47;;;21.01;87.69
71361;BME280;59166;48.908;1.870;2022-08-19T18:06:49;100490.72;;;20.99;87.92
71361;BME280;59166;48.908;1.870;2022-08-19T18:11:51;100486.69;;;20.96;88.23
71361;BME280;59166;48.908;1.870;2022-08-19T18:16:53;100498.63;;;20.92;88.31
71361;BME280;59166;48.908;1.870;2022-08-19T18:21:54;100501.03;;;20.85;88.87
71361;BME280;59166;48.908;1.870;2022-08-19T18:26:55;100502.03;;;20.80;87.95
71361;BME280;59166;48.908;1.870;2022-08-19T18:31:57;100500.22;;;20.76;88.40
71361;BME280;59166;48.908;1.870;2022-08-19T18:36:57;100499.44;;;20.67;87.92
71361;BME280;59166;48.908;1.870;2022-08-19T18:41:58;100507.00;;;20.61;87.85
71361;BME280;59166;48.908;1.870;2022-08-19T18:47:00;100511.19;;;20.59;87.60
71361;BME280;59166;48.908;1.870;2022-08-19T18:52:00;100526.53;;;20.51;87.85
71361;BME280;59166;48.908;1.870;2022-08-19T18:57:01;100525.06;;;20.45;88.50
71361;BME280;59166;48.908;1.870;2022-08-19T19:02:03;100526.69;;;20.46;88.65
71361;BME280;59166;48.908;1.870;2022-08-19T19:07:05;100538.31;;;20.43;87.98
71361;BME280;59166;48.908;1.870;2022-08-19T19:12:08;100549.44;;;20.38;89.21
71361;BME280;59166;48.908;1.870;2022-08-19T19:17:13;100561.22;;;20.38;88.68
71361;BME280;59166;48.908;1.870;2022-08-19T19:22:18;100572.84;;;20.35;88.80
71361;BME280;59166;48.908;1.870;2022-08-19T19:27:19;100568.47;;;20.26;88.73
71361;BME280;59166;48.908;1.870;2022-08-19T19:32:24;100579.91;;;20.19;89.50
71361;BME280;59166;48.908;1.870;2022-08-19T19:37:24;100582.59;;;20.11;87.94
71361;BME280;59166;48.908;1.870;2022-08-19T19:42:25;100581.44;;;20.03;88.64
71361;BME280;59166;48.908;1.870;2022-08-19T19:47:27;100582.19;;;19.95;88.78
71361;BME280;59166;48.908;1.870;2022-08-19T19:52:28;100595.22;;;19.89;89.20
71361;BME280;59166;48.908;1.870;2022-08-19T19:57:29;100593.31;;;19.68;87.67
71361;BME280;59166;48.908;1.870;2022-08-19T20:02:31;100593.56;;;19.58;86.44
71361;BME280;59166;48.908;1.870;2022-08-19T20:07:31;100603.78;;;19.43;86.74
71361;BME280;59166;48.908;1.870;2022-08-19T20:12:32;100598.38;;;19.30;86.54
71361;BME280;59166;48.908;1.870;2022-08-19T20:17:35;100607.66;;;19.20;86.93
71361;BME280;59166;48.908;1.870;2022-08-19T20:22:36;100612.25;;;19.11;87.13
71361;BME280;59166;48.908;1.870;2022-08-19T20:27:37;100615.28;;;18.96;86.86
71361;BME280;59166;48.908;1.870;2022-08-19T20:32:40;100601.97;;;18.81;85.63
71361;BME280;59166;48.908;1.870;2022-08-19T20:37:41;100611.78;;;18.68;85.93
71361;BME280;59166;48.908;1.870;2022-08-19T20:42:42;100616.50;;;18.54;85.79
71361;BME280;59166;48.908;1.870;2022-08-19T20:47:44;100631.09;;;18.50;84.83
71361;BME280;59166;48.908;1.870;2022-08-19T20:52:45;100632.19;;;18.35;85.31
71361;BME280;59166;48.908;1.870;2022-08-19T20:57:45;100635.34;;;18.28;85.19
71361;BME280;59166;48.908;1.870;2022-08-19T21:02:47;100637.03;;;18.24;85.25
71361;BME280;59166;48.908;1.870;2022-08-19T21:07:48;100642.31;;;18.21;84.70
71361;BME280;59166;48.908;1.870;2022-08-19T21:12:49;100640.06;;;18.09;84.52
71361;BME280;59166;48.908;1.870;2022-08-19T21:17:51;100652.81;;;18.00;84.87
71361;BME280;59166;48.908;1.870;2022-08-19T21:22:51;100648.72;;;17.97;83.40
71361;BME280;59166;48.908;1.870;2022-08-19T21:27:52;100656.31;;;17.87;84.36
71361;BME280;59166;48.908;1.870;2022-08-19T21:32:54;100653.03;;;17.71;85.25
71361;BME280;59166;48.908;1.870;2022-08-19T21:37:55;100662.59;;;17.55;85.70
71361;BME280;59166;48.908;1.870;2022-08-19T21:42:56;100655.81;;;17.34;85.70
71361;BME280;59166;48.908;1.870;2022-08-19T21:47:58;100659.59;;;17.19;85.76
71361;BME280;59166;48.908;1.870;2022-08-19T21:52:59;100672.97;;;16.97;86.49
71361;BME280;59166;48.908;1.870;2022-08-19T21:58:00;100670.50;;;16.77;87.24
71361;BME280;59166;48.908;1.870;2022-08-19T22:03:03;100671.72;;;16.66;87.71
71361;BME280;59166;48.908;1.870;2022-08-19T22:08:03;100677.97;;;16.48;88.39
71361;BME280;59166;48.908;1.870;2022-08-19T22:13:04;100679.13;;;16.41;88.64
71361;BME280;59166;48.908;1.870;2022-08-19T22:18:06;100681.97;;;16.31;88.60
71361;BME280;59166;48.908;1.870;2022-08-19T22:23:07;100676.63;;;16.21;88.79
71361;BME280;59166;48.908;1.870;2022-08-19T22:28:09;100685.44;;;16.08;89.18
71361;BME280;59166;48.908;1.870;2022-08-19T22:33:14;100688.78;;;16.00;89.56
71361;BME280;59166;48.908;1.870;2022-08-19T22:38:15;100690.78;;;15.89;89.96
71361;BME280;59166;48.908;1.870;2022-08-19T22:43:17;100680.72;;;15.85;89.68
71361;BME280;59166;48.908;1.870;2022-08-19T22:48:21;100673.22;;;15.72;89.54
71361;BME280;59166;48.908;1.870;2022-08-19T22:53:22;100670.47;;;15.77;89.22
71361;BME280;59166;48.908;1.870;2022-08-19T22:58:23;100675.41;;;15.70;88.67
71361;BME280;59166;48.908;1.870;2022-08-19T23:03:26;100672.16;;;15.68;89.34
71361;BME280;59166;48.908;1.870;2022-08-19T23:08:27;100667.84;;;15.62;90.10
71361;BME280;59166;48.908;1.870;2022-08-19T23:13:27;100677.19;;;15.51;90.88
71361;BME280;59166;48.908;1.870;2022-08-19T23:18:29;100668.84;;;15.37;91.30
71361;BME280;59166;48.908;1.870;2022-08-19T23:23:30;100666.94;;;15.37;90.73
71361;BME280;59166;48.908;1.870;2022-08-19T23:28:31;100671.84;;;15.35;90.49
71361;BME280;59166;48.908;1.870;2022-08-19T23:33:35;100677.88;;;15.27;91.12
71361;BME280;59166;48.908;1.870;2022-08-19T23:38:38;100678.50;;;15.19;91.62
71361;BME280;59166;48.908;1.870;2022-08-19T23:43:40;100674.72;;;15.15;91.27
71361;BME280;59166;48.908;1.870;2022-08-19T23:48:42;100667.06;;;15.17;90.08
71361;BME280;59166;48.908;1.870;2022-08-19T23:53:43;100669.28;;;15.10;89.83
71361;BME280;59166;48.908;1.870;2022-08-19T23:58:44;100669.31;;;15.05;89.17
